createdAt,value
2023-11-17T00:01:40.174Z,8.10
2023-11-17T00:04:07.247Z,8.10
2023-11-17T00:06:34.633Z,8.10
2023-11-17T00:09:02.376Z,8.10
2023-11-17T00:11:29.557Z,8.10
2023-11-17T00:13:56.324Z,8.10
2023-11-17T00:16:24.044Z,8.10
2023-11-17T00:18:53.484Z,8.00
2023-11-17T00:21:20.523Z,8.00
2023-11-17T00:23:47.322Z,8.00
2023-11-17T00:26:14.236Z,8.00
2023-11-17T00:28:41.290Z,8.00
2023-11-17T00:31:08.944Z,8.00
2023-11-17T00:33:36.029Z,8.00
2023-11-17T00:36:03.106Z,8.10
2023-11-17T00:38:32.703Z,8.10
2023-11-17T00:41:00.961Z,8.10
2023-11-17T00:43:28.452Z,8.00
2023-11-17T00:45:59.873Z,8.00
2023-11-17T00:48:28.548Z,8.00
2023-11-17T00:50:59.761Z,8.00
2023-11-17T00:53:27.548Z,8.10
2023-11-17T00:55:54.681Z,8.10
2023-11-17T00:58:22.561Z,8.10
2023-11-17T01:00:49.441Z,8.10
2023-11-17T01:03:17.383Z,8.10
2023-11-17T01:05:44.211Z,8.10
2023-11-17T01:08:11.646Z,8.10
2023-11-17T01:10:39.052Z,8.20
2023-11-17T01:13:07.256Z,8.10
2023-11-17T01:15:35.978Z,8.20
2023-11-17T01:18:08.796Z,8.20
2023-11-17T01:20:37.028Z,8.20
2023-11-17T01:23:04.572Z,8.20
2023-11-17T01:25:34.732Z,8.20
2023-11-17T01:28:03.530Z,8.20
2023-11-17T01:30:31.513Z,8.20
2023-11-17T01:32:58.712Z,8.20
2023-11-17T01:35:25.946Z,8.30
2023-11-17T01:37:52.723Z,8.30
2023-11-17T01:40:21.132Z,8.20
2023-11-17T01:42:48.109Z,8.20
2023-11-17T01:45:15.809Z,8.20
2023-11-17T01:47:43.917Z,8.10
2023-11-17T01:50:13.898Z,8.10
2023-11-17T01:52:42.058Z,8.10
2023-11-17T01:55:09.727Z,8.10
2023-11-17T01:57:40.024Z,8.10
2023-11-17T02:00:15.040Z,8.10
2023-11-17T02:02:48.924Z,8.10
2023-11-17T02:05:20.346Z,8.10
2023-11-17T02:07:54.823Z,8.10
2023-11-17T02:10:57.836Z,8.10
2023-11-17T02:13:39.605Z,8.10
2023-11-17T02:16:12.841Z,8.10
2023-11-17T02:18:43.782Z,8.10
2023-11-17T02:21:15.947Z,8.10
2023-11-17T02:23:44.018Z,8.10
2023-11-17T02:26:17.383Z,8.10
2023-11-17T02:29:01.558Z,8.10
2023-11-17T02:31:37.334Z,8.10
2023-11-17T02:34:07.625Z,8.10
2023-11-17T02:36:34.863Z,8.10
2023-11-17T02:39:28.401Z,8.10
2023-11-17T02:41:59.655Z,8.10
2023-11-17T02:44:31.156Z,8.10
2023-11-17T02:47:04.156Z,8.10
2023-11-17T02:49:43.926Z,8.00
2023-11-17T02:52:25.429Z,8.00
2023-11-17T02:54:54.136Z,8.00
2023-11-17T02:57:25.372Z,8.00
2023-11-17T02:59:52.954Z,8.00
2023-11-17T03:02:20.858Z,8.00
2023-11-17T03:04:55.458Z,8.00
2023-11-17T03:07:22.910Z,7.90
2023-11-17T03:09:53.368Z,7.90
2023-11-17T03:12:21.154Z,7.90
2023-11-17T03:14:47.968Z,7.90
2023-11-17T03:17:14.765Z,8.00
2023-11-17T03:19:41.989Z,8.00
2023-11-17T03:22:09.048Z,8.00
2023-11-17T03:24:36.058Z,8.10
2023-11-17T03:27:04.115Z,8.00
2023-11-17T03:29:33.072Z,8.00
2023-11-17T03:32:00.910Z,8.00
2023-11-17T03:34:30.948Z,8.10
2023-11-17T03:37:02.774Z,8.00
2023-11-17T03:39:42.662Z,8.00
2023-11-17T03:42:14.260Z,8.00
2023-11-17T03:44:41.080Z,8.10
2023-11-17T03:47:08.175Z,8.10
2023-11-17T03:49:35.479Z,8.10
2023-11-17T03:52:05.908Z,8.10
2023-11-17T03:54:34.018Z,8.10
2023-11-17T03:57:02.960Z,8.10
2023-11-17T03:59:31.245Z,8.20
2023-11-17T04:01:59.254Z,8.20
2023-11-17T04:04:27.332Z,8.20
2023-11-17T04:06:56.379Z,8.20
2023-11-17T04:09:24.599Z,8.20
2023-11-17T04:11:55.639Z,8.20
2023-11-17T04:14:23.656Z,8.20
2023-11-17T04:16:51.734Z,8.20
2023-11-17T04:19:22.535Z,8.10
2023-11-17T04:21:50.589Z,8.10
2023-11-17T04:24:18.418Z,8.10
2023-11-17T04:26:45.852Z,8.10
2023-11-17T04:29:12.896Z,8.20
2023-11-17T04:31:39.757Z,8.20
2023-11-17T04:34:07.020Z,8.20
2023-11-17T04:36:34.220Z,8.10
2023-11-17T04:39:02.541Z,8.20
2023-11-17T04:41:32.955Z,8.20
2023-11-17T04:44:00.498Z,8.20
2023-11-17T04:46:27.717Z,8.30
2023-11-17T04:48:54.682Z,8.20
2023-11-17T04:51:21.409Z,8.20
2023-11-17T04:53:48.260Z,8.20
2023-11-17T04:56:15.250Z,8.30
2023-11-17T04:58:42.031Z,8.30
2023-11-17T05:01:09.001Z,8.30
2023-11-17T05:03:36.882Z,8.30
2023-11-17T05:06:07.514Z,8.30
2023-11-17T05:08:36.840Z,8.30
2023-11-17T05:11:05.515Z,8.30
2023-11-17T05:13:33.398Z,8.30
2023-11-17T05:16:04.500Z,8.30
2023-11-17T05:18:31.626Z,8.30
2023-11-17T05:20:58.489Z,8.30
2023-11-17T05:23:25.246Z,8.40
2023-11-17T05:25:52.089Z,8.30
2023-11-17T05:28:19.474Z,8.40
2023-11-17T05:30:47.333Z,8.30
2023-11-17T05:33:19.379Z,8.30
2023-11-17T05:35:46.806Z,8.30
2023-11-17T05:38:13.574Z,8.30
2023-11-17T05:40:41.640Z,8.20
2023-11-17T05:43:08.774Z,8.20
2023-11-17T05:45:35.994Z,8.20
2023-11-17T05:48:03.732Z,8.30
2023-11-17T05:50:30.820Z,8.20
2023-11-17T05:52:57.804Z,8.20
2023-11-17T05:55:24.668Z,8.20
2023-11-17T05:57:51.773Z,8.20
2023-11-17T06:00:22.118Z,8.10
2023-11-17T06:02:49.525Z,8.10
2023-11-17T06:05:16.959Z,8.10
2023-11-17T06:07:43.936Z,8.10
2023-11-17T06:10:11.767Z,8.10
2023-11-17T06:12:38.813Z,8.10
2023-11-17T06:15:07.357Z,8.10
2023-11-17T06:17:36.359Z,8.10
2023-11-17T06:20:04.841Z,8.10
2023-11-17T06:22:31.818Z,8.20
2023-11-17T06:24:58.628Z,8.10
2023-11-17T06:27:25.636Z,8.20
2023-11-17T06:29:52.429Z,8.20
2023-11-17T06:32:19.399Z,8.20
2023-11-17T06:34:47.704Z,8.20
2023-11-17T06:37:14.649Z,8.30
2023-11-17T06:39:41.444Z,8.30
2023-11-17T06:42:09.034Z,8.30
2023-11-17T06:44:36.404Z,8.30
2023-11-17T06:47:07.689Z,8.30
2023-11-17T06:49:34.854Z,8.30
2023-11-17T06:52:03.108Z,8.30
2023-11-17T06:54:30.835Z,8.30
2023-11-17T06:56:57.692Z,8.30
2023-11-17T06:59:24.452Z,8.30
2023-11-17T07:01:51.902Z,8.30
2023-11-17T07:04:20.372Z,8.30
2023-11-17T07:06:49.042Z,8.30
2023-11-17T07:09:20.981Z,8.30
2023-11-17T07:11:51.162Z,8.30
2023-11-17T07:14:21.246Z,8.40
2023-11-17T07:16:51.716Z,8.30
2023-11-17T07:19:19.584Z,8.40
2023-11-17T07:21:48.181Z,8.40
2023-11-17T07:24:16.599Z,8.40
2023-11-17T07:26:45.997Z,8.40
2023-11-17T07:29:14.358Z,8.40
2023-11-17T07:31:45.797Z,8.40
2023-11-17T07:34:21.578Z,8.40
2023-11-17T07:36:49.391Z,8.40
2023-11-17T07:39:20.682Z,8.50
2023-11-17T07:41:48.448Z,8.50
2023-11-17T07:44:15.653Z,8.50
2023-11-17T07:46:43.463Z,8.50
2023-11-17T07:49:13.726Z,8.50
2023-11-17T07:51:40.765Z,8.60
2023-11-17T07:54:13.058Z,8.60
2023-11-17T07:56:41.660Z,8.60
2023-11-17T07:59:12.023Z,8.60
2023-11-17T08:01:40.536Z,8.70
2023-11-17T08:04:09.856Z,8.70
2023-11-17T08:06:37.753Z,8.80
2023-11-17T08:09:05.604Z,8.80
2023-11-17T08:11:32.463Z,8.80
2023-11-17T08:13:59.290Z,8.90
2023-11-17T08:16:27.947Z,8.90
2023-11-17T08:18:54.964Z,8.90
2023-11-17T08:21:22.219Z,9.00
2023-11-17T08:23:49.267Z,9.00
2023-11-17T08:26:17.140Z,9.00
2023-11-17T08:28:44.019Z,9.00
2023-11-17T08:31:16.005Z,9.10
2023-11-17T08:33:44.342Z,9.10
2023-11-17T08:36:12.092Z,9.10
2023-11-17T08:38:42.833Z,9.10
2023-11-17T08:41:13.202Z,9.10
2023-11-17T08:43:41.073Z,9.10
2023-11-17T08:46:08.791Z,9.20
2023-11-17T08:48:39.239Z,9.20
2023-11-17T08:51:06.293Z,9.20
2023-11-17T08:53:33.074Z,9.30
2023-11-17T08:56:02.577Z,9.30
2023-11-17T08:58:29.776Z,9.40
2023-11-17T09:00:59.040Z,9.40
2023-11-17T09:03:26.131Z,9.40
2023-11-17T09:05:53.084Z,9.40
2023-11-17T09:08:20.004Z,9.50
2023-11-17T09:10:49.243Z,9.50
2023-11-17T09:13:17.963Z,9.60
2023-11-17T09:15:46.572Z,9.60
2023-11-17T09:18:14.915Z,9.60
2023-11-17T09:20:41.891Z,9.60
2023-11-17T09:23:08.660Z,9.60
2023-11-17T09:25:35.744Z,9.60
2023-11-17T09:28:04.016Z,9.60
2023-11-17T09:30:34.168Z,9.60
2023-11-17T09:33:04.033Z,9.60
2023-11-17T09:35:33.390Z,9.60
2023-11-17T09:38:02.190Z,9.60
2023-11-17T09:40:38.032Z,9.60
2023-11-17T09:43:24.654Z,9.70
2023-11-17T09:46:00.652Z,9.70
2023-11-17T09:48:29.628Z,9.80
2023-11-17T09:50:57.602Z,9.90
2023-11-17T09:53:25.007Z,10.00
2023-11-17T09:55:54.983Z,10.00
2023-11-17T09:58:22.212Z,10.10
2023-11-17T10:00:50.076Z,10.20
2023-11-17T10:03:20.499Z,10.30
2023-11-17T10:05:49.185Z,10.30
2023-11-17T10:08:17.957Z,10.40
2023-11-17T10:10:46.671Z,10.50
2023-11-17T10:13:15.021Z,10.50
2023-11-17T10:15:45.778Z,10.50
2023-11-17T10:18:21.492Z,10.50
2023-11-17T10:20:48.695Z,10.50
2023-11-17T10:23:15.923Z,10.50
2023-11-17T10:25:44.616Z,10.50
2023-11-17T10:28:11.902Z,10.50
2023-11-17T10:30:39.140Z,10.50
2023-11-17T10:33:15.977Z,10.50
2023-11-17T10:35:44.885Z,10.50
2023-11-17T10:38:16.384Z,10.40
2023-11-17T10:40:43.219Z,10.40
2023-11-17T10:43:12.832Z,10.40
2023-11-17T10:45:40.725Z,10.40
2023-11-17T10:48:08.875Z,10.50
2023-11-17T10:50:36.460Z,10.60
2023-11-17T10:53:21.302Z,10.70
2023-11-17T10:55:49.906Z,10.80
2023-11-17T10:58:17.120Z,10.90
2023-11-17T11:00:49.397Z,11.00
2023-11-17T11:03:17.560Z,11.00
2023-11-17T11:05:46.250Z,11.20
2023-11-17T11:08:18.957Z,11.30
2023-11-17T11:10:54.995Z,11.50
2023-11-17T11:13:31.623Z,11.50
2023-11-17T11:16:08.665Z,11.60
2023-11-17T11:18:56.336Z,11.70
2023-11-17T11:21:23.615Z,11.80
2023-11-17T11:23:51.352Z,11.70
2023-11-17T11:26:18.937Z,11.70
2023-11-17T11:28:46.608Z,11.70
2023-11-17T11:31:16.099Z,11.70
2023-11-17T11:33:43.401Z,11.70
2023-11-17T11:36:13.529Z,11.70
2023-11-17T11:38:41.128Z,11.80
2023-11-17T11:41:16.912Z,11.80
2023-11-17T11:43:47.466Z,11.80
2023-11-17T11:46:20.198Z,11.80
2023-11-17T11:48:52.527Z,11.80
2023-11-17T11:51:24.716Z,11.70
2023-11-17T11:53:56.039Z,11.70
2023-11-17T11:56:32.394Z,11.70
2023-11-17T11:59:00.018Z,11.70
2023-11-17T12:01:33.696Z,11.80
2023-11-17T12:04:11.597Z,11.90
2023-11-17T12:06:43.594Z,11.90
2023-11-17T12:09:21.752Z,12.00
2023-11-17T12:11:53.102Z,12.00
2023-11-17T12:14:30.515Z,12.00
2023-11-17T12:16:59.922Z,12.00
2023-11-17T12:19:34.167Z,12.00
2023-11-17T12:22:05.267Z,12.00
2023-11-17T12:24:36.375Z,12.10
2023-11-17T12:27:06.125Z,12.00
2023-11-17T12:29:36.653Z,11.90
2023-11-17T12:32:09.634Z,11.80
2023-11-17T12:34:46.496Z,11.70
2023-11-17T12:37:15.684Z,11.60
2023-11-17T12:39:46.036Z,11.60
2023-11-17T12:42:18.733Z,11.40
2023-11-17T12:44:46.176Z,11.40
2023-11-17T12:47:22.456Z,11.30
2023-11-17T12:49:57.291Z,11.40
2023-11-17T12:52:24.746Z,11.50
2023-11-17T12:55:10.856Z,11.40
2023-11-17T12:57:38.735Z,11.40
2023-11-17T13:00:15.194Z,11.40
2023-11-17T13:02:42.618Z,11.40
2023-11-17T13:05:13.127Z,11.40
2023-11-17T13:07:40.617Z,11.40
2023-11-17T13:10:12.329Z,11.40
2023-11-17T13:12:40.333Z,11.40
2023-11-17T13:15:11.795Z,11.40
2023-11-17T13:17:38.682Z,11.40
2023-11-17T13:20:15.125Z,11.40
2023-11-17T13:22:47.142Z,11.50
2023-11-17T13:25:14.079Z,11.50
2023-11-17T13:27:44.104Z,11.50
2023-11-17T13:30:14.298Z,11.60
2023-11-17T13:33:09.469Z,11.60
2023-11-17T13:35:38.700Z,11.70
2023-11-17T13:38:05.941Z,11.70
2023-11-17T13:40:35.273Z,11.70
2023-11-17T13:43:12.656Z,11.70
2023-11-17T13:45:40.718Z,11.60
2023-11-17T13:48:12.038Z,11.60
2023-11-17T13:50:53.476Z,11.50
2023-11-17T13:53:23.173Z,11.50
2023-11-17T13:55:54.198Z,11.40
2023-11-17T13:58:21.581Z,11.40
2023-11-17T14:00:49.046Z,11.30
2023-11-17T14:03:15.999Z,11.20
2023-11-17T14:05:43.630Z,11.20
2023-11-17T14:08:12.849Z,11.10
2023-11-17T14:10:39.934Z,11.10
2023-11-17T14:13:07.352Z,11.00
2023-11-17T14:15:43.444Z,11.00
2023-11-17T14:18:18.714Z,10.90
2023-11-17T14:20:45.890Z,10.90
2023-11-17T14:23:12.677Z,10.80
2023-11-17T14:25:39.553Z,10.80
2023-11-17T14:28:06.387Z,10.90
2023-11-17T14:30:33.366Z,10.80
2023-11-17T14:33:03.112Z,10.80
2023-11-17T14:35:30.100Z,10.70
2023-11-17T14:37:57.016Z,10.70
2023-11-17T14:40:24.302Z,10.70
2023-11-17T14:42:52.693Z,10.60
2023-11-17T14:45:21.646Z,10.60
2023-11-17T14:47:49.320Z,10.60
2023-11-17T14:50:18.130Z,10.60
2023-11-17T14:52:44.983Z,10.60
2023-11-17T14:55:12.067Z,10.50
2023-11-17T14:57:39.978Z,10.50
2023-11-17T15:00:21.072Z,10.40
2023-11-17T15:02:48.951Z,10.40
2023-11-17T15:05:20.446Z,10.40
2023-11-17T15:07:50.901Z,10.40
2023-11-17T15:10:19.862Z,10.40
2023-11-17T15:12:48.757Z,10.40
2023-11-17T15:15:36.087Z,10.40
2023-11-17T15:18:09.330Z,10.40
2023-11-17T15:20:36.230Z,10.40
2023-11-17T15:23:06.486Z,10.40
2023-11-17T15:25:37.369Z,10.60
2023-11-17T15:28:14.009Z,10.50
2023-11-17T15:30:47.323Z,10.60
2023-11-17T15:33:15.465Z,10.50
2023-11-17T15:35:42.347Z,10.50
2023-11-17T15:38:09.114Z,10.50
2023-11-17T15:40:37.363Z,10.50
2023-11-17T15:43:15.366Z,10.50
2023-11-17T15:45:43.461Z,10.50
2023-11-17T15:48:12.542Z,10.50
2023-11-17T15:50:39.800Z,10.50
2023-11-17T15:53:06.720Z,10.40
2023-11-17T15:55:33.658Z,10.40
2023-11-17T15:58:00.851Z,10.40
2023-11-17T16:00:27.746Z,10.40
2023-11-17T16:02:54.729Z,10.40
2023-11-17T16:05:23.099Z,10.40
2023-11-17T16:07:52.553Z,10.40
2023-11-17T16:10:23.720Z,10.40
2023-11-17T16:12:52.178Z,10.40
2023-11-17T16:15:19.791Z,10.40
2023-11-17T16:17:47.700Z,10.40
2023-11-17T16:20:15.638Z,10.40
2023-11-17T16:22:44.009Z,10.50
2023-11-17T16:25:12.247Z,10.50
2023-11-17T16:27:40.301Z,10.50
2023-11-17T16:30:14.675Z,10.50
2023-11-17T16:32:42.676Z,10.40
2023-11-17T16:35:12.626Z,10.40
2023-11-17T16:37:39.679Z,10.40
2023-11-17T16:40:13.063Z,10.40
2023-11-17T16:42:41.704Z,10.40
2023-11-17T16:45:09.810Z,10.40
2023-11-17T16:47:36.653Z,10.40
2023-11-17T16:50:07.336Z,10.40
2023-11-17T16:52:34.287Z,10.40
2023-11-17T16:55:01.181Z,10.40
2023-11-17T16:57:29.261Z,10.40
2023-11-17T16:59:56.018Z,10.40
2023-11-17T17:02:23.089Z,10.40
2023-11-17T17:04:49.938Z,10.40
2023-11-17T17:07:16.714Z,10.40
2023-11-17T17:09:45.456Z,10.40
2023-11-17T17:12:12.270Z,10.30
2023-11-17T17:14:39.052Z,10.30
2023-11-17T17:17:06.015Z,10.40
2023-11-17T17:19:35.218Z,10.30
2023-11-17T17:22:02.947Z,10.40
2023-11-17T17:24:30.322Z,10.30
2023-11-17T17:26:57.082Z,10.30
2023-11-17T17:29:24.176Z,10.30
2023-11-17T17:31:51.177Z,10.30
2023-11-17T17:34:19.689Z,10.30
2023-11-17T17:36:46.911Z,10.30
2023-11-17T17:39:17.915Z,10.30
2023-11-17T17:41:48.902Z,10.30
2023-11-17T17:44:17.201Z,10.30
2023-11-17T17:46:44.468Z,10.30
2023-11-17T17:49:11.931Z,10.30
2023-11-17T17:51:45.071Z,10.30
2023-11-17T17:54:11.895Z,10.30
2023-11-17T17:56:39.775Z,10.30
2023-11-17T17:59:06.724Z,10.30
2023-11-17T18:01:34.299Z,10.30
2023-11-17T18:04:01.272Z,10.30
2023-11-17T18:06:28.398Z,10.20
2023-11-17T18:08:55.269Z,10.30
2023-11-17T18:11:24.868Z,10.20
2023-11-17T18:13:52.110Z,10.20
2023-11-17T18:16:19.061Z,10.30
2023-11-17T18:18:46.644Z,10.30
2023-11-17T18:21:14.677Z,10.20
2023-11-17T18:23:41.525Z,10.30
2023-11-17T18:26:19.933Z,10.20
2023-11-17T18:28:54.327Z,10.30
2023-11-17T18:31:21.146Z,10.20
2023-11-17T18:33:47.952Z,10.20
2023-11-17T18:36:16.190Z,10.20
2023-11-17T18:38:42.944Z,10.20
2023-11-17T18:41:09.718Z,10.20
2023-11-17T18:43:39.973Z,10.10
2023-11-17T18:46:11.049Z,10.20
2023-11-17T18:48:40.861Z,10.20
2023-11-17T18:51:08.436Z,10.20
2023-11-17T18:53:35.974Z,10.20
2023-11-17T18:56:04.339Z,10.20
2023-11-17T18:58:31.618Z,10.20
2023-11-17T19:00:59.786Z,10.20
2023-11-17T19:03:26.603Z,10.20
2023-11-17T19:05:53.359Z,10.20
2023-11-17T19:08:20.139Z,10.20
2023-11-17T19:10:47.551Z,10.20
2023-11-17T19:13:14.503Z,10.20
2023-11-17T19:15:42.144Z,10.20
2023-11-17T19:18:09.278Z,10.20
2023-11-17T19:20:36.992Z,10.20
2023-11-17T19:23:04.585Z,10.20
2023-11-17T19:25:32.987Z,10.20
2023-11-17T19:28:00.786Z,10.20
2023-11-17T19:30:27.535Z,10.20
2023-11-17T19:32:54.828Z,10.20
2023-11-17T19:35:23.500Z,10.20
2023-11-17T19:37:51.802Z,10.20
2023-11-17T19:40:18.766Z,10.20
2023-11-17T19:42:45.993Z,10.10
2023-11-17T19:45:17.337Z,10.10
2023-11-17T19:47:47.700Z,10.10
2023-11-17T19:50:18.431Z,10.10
2023-11-17T19:52:50.761Z,10.10
2023-11-17T19:55:21.589Z,10.00
2023-11-17T19:57:49.003Z,10.00
2023-11-17T20:00:23.887Z,9.90
2023-11-17T20:02:51.488Z,9.90
2023-11-17T20:05:23.008Z,9.80
2023-11-17T20:07:50.769Z,9.80
2023-11-17T20:10:17.719Z,9.70
2023-11-17T20:12:46.160Z,9.70
2023-11-17T20:15:18.753Z,9.70
2023-11-17T20:17:55.347Z,9.60
2023-11-17T20:20:26.042Z,9.60
2023-11-17T20:22:53.550Z,9.50
2023-11-17T20:25:24.520Z,9.50
2023-11-17T20:27:52.431Z,9.40
2023-11-17T20:30:21.313Z,9.40
2023-11-17T20:32:49.394Z,9.40
2023-11-17T20:35:16.321Z,9.30
2023-11-17T20:37:44.497Z,9.30
2023-11-17T20:40:15.233Z,9.20
2023-11-17T20:42:45.719Z,9.20
2023-11-17T20:45:16.170Z,9.20
2023-11-17T20:47:44.746Z,9.10
2023-11-17T20:50:21.385Z,9.10
2023-11-17T20:52:52.197Z,9.10
2023-11-17T20:55:23.691Z,9.00
2023-11-17T20:57:51.469Z,9.00
2023-11-17T21:00:21.889Z,9.00
2023-11-17T21:02:52.831Z,9.00
2023-11-17T21:05:20.635Z,8.90
2023-11-17T21:07:49.153Z,8.90
2023-11-17T21:10:20.036Z,8.90
2023-11-17T21:12:48.619Z,8.80
2023-11-17T21:15:18.391Z,8.80
2023-11-17T21:17:47.539Z,8.80
2023-11-17T21:20:15.962Z,8.80
2023-11-17T21:22:43.061Z,8.80
2023-11-17T21:25:12.503Z,8.80
2023-11-17T21:27:43.201Z,8.70
2023-11-17T21:30:18.572Z,8.70
2023-11-17T21:32:47.612Z,8.70
2023-11-17T21:35:19.567Z,8.70
2023-11-17T21:37:47.667Z,8.70
2023-11-17T21:40:15.502Z,8.80
2023-11-17T21:42:46.527Z,8.80
2023-11-17T21:45:16.598Z,8.80
2023-11-17T21:47:45.325Z,8.80
2023-11-17T21:50:13.109Z,8.80
2023-11-17T21:52:40.351Z,8.90
2023-11-17T21:55:10.634Z,9.00
2023-11-17T21:57:39.205Z,8.90
2023-11-17T22:00:12.551Z,9.00
2023-11-17T22:02:46.585Z,8.90
2023-11-17T22:05:17.506Z,8.90
2023-11-17T22:07:45.314Z,8.90
2023-11-17T22:10:13.294Z,8.90
2023-11-17T22:12:41.003Z,9.00
2023-11-17T22:15:09.933Z,9.00
2023-11-17T22:17:37.645Z,9.00
2023-11-17T22:20:06.688Z,9.10
2023-11-17T22:22:34.504Z,9.10
2023-11-17T22:25:02.056Z,9.10
2023-11-17T22:27:31.607Z,9.10
2023-11-17T22:29:58.348Z,9.10
2023-11-17T22:32:25.348Z,9.10
2023-11-17T22:34:52.324Z,9.10
2023-11-17T22:37:19.659Z,9.10
2023-11-17T22:39:46.590Z,9.10
2023-11-17T22:42:13.405Z,9.10
2023-11-17T22:44:40.981Z,9.10
2023-11-17T22:47:08.211Z,9.10
2023-11-17T22:49:37.463Z,9.10
2023-11-17T22:52:05.745Z,9.00
2023-11-17T22:54:32.898Z,9.00
2023-11-17T22:57:00.446Z,9.00
2023-11-17T22:59:27.746Z,9.00
2023-11-17T23:01:54.668Z,9.00
2023-11-17T23:04:21.531Z,9.00
2023-11-17T23:06:48.731Z,8.90
2023-11-17T23:09:16.292Z,8.90
2023-11-17T23:11:45.107Z,8.90
2023-11-17T23:14:12.159Z,8.90
2023-11-17T23:16:39.449Z,8.90
2023-11-17T23:19:14.781Z,8.90
2023-11-17T23:21:47.101Z,8.90
2023-11-17T23:24:13.911Z,8.90
2023-11-17T23:26:40.865Z,9.00
2023-11-17T23:29:07.861Z,8.90
2023-11-17T23:31:34.753Z,8.90
2023-11-17T23:34:01.680Z,8.90
2023-11-17T23:36:28.692Z,8.90
2023-11-17T23:38:55.629Z,8.90
2023-11-17T23:41:22.414Z,8.90
2023-11-17T23:43:49.289Z,8.90
2023-11-17T23:46:17.615Z,8.80
2023-11-17T23:48:44.406Z,8.80
2023-11-17T23:51:11.659Z,8.80
2023-11-17T23:53:38.410Z,8.80
2023-11-17T23:56:06.043Z,8.80
2023-11-17T23:58:33.394Z,8.80
